Santa, Idaho
Current Conditions -  °F | °C
As of 7:53 PM on Saturday 20 Dec 2014 (Local Time) from KPUW Reporting Station
Light Rain Light Rain  
Wind Chill: 31°   Ceiling: 2400
Heat Index: 40°   Visibility: 6mi
Dew Point: 37°   Wind: 16mph
Humidity: 89%   Direction: 140°SE
Pressure: 29.64"   Gusts: 25mph
Location:  47.15°N, 116.45°W
Report Text: KPUW 210353Z AUTO 14014G22KT 6SM -RA BR OVC024 04/03 A2964 RMK AO2 SLP050 P0006 T00440028
Loading
Personal Weather Stations






























Interactive Weather Map New forecast layout! Learn more

10-Day Weather Forecast

Advertisements
Track Severe Weather on mobile